Time;durP1;ratioP1;P1;durP2;ratioP2;P2;SDS_P1;SDS_P2;PMS_P1;PMS_P2;Temp;Humidity;BMP_temperature;BMP_pressure;BME280_temperature;BME280_humidity;BME280_pressure;Samples;Min_cycle;Max_cycle;Signal;HPM_P1;HPM_P2
2023/03/25 00:01:15;;;;;;;14.70;4.60;;;11.50;99.90;;;;;;5050015;28;20685;-60
2023/03/25 00:03:42;;;;;;;21.48;6.75;;;11.60;99.90;;;;;;5034207;28;20507;-60
2023/03/25 00:06:11;;;;;;;23.70;7.25;;;13.60;99.90;;;;;;5042184;28;20344;-59
2023/03/25 00:08:37;;;;;;;551.80;27.02;;;11.80;99.90;;;;;;5049928;28;20037;-60
2023/03/25 00:11:03;;;;;;;64.25;12.70;;;12.40;99.90;;;;;;5040452;28;20475;-60
2023/03/25 00:13:33;;;;;;;34.35;7.07;;;12.20;99.90;;;;;;5053012;28;20052;-60
2023/03/25 00:15:59;;;;;;;64.43;11.88;;;12.40;99.90;;;;;;5052658;28;20040;-60
2023/03/25 00:18:28;;;;;;;29.42;6.45;;;12.30;99.90;;;;;;5048165;28;20057;-60
2023/03/25 00:20:53;;;;;;;32.88;6.30;;;11.00;99.90;;;;;;5054062;28;20041;-60
2023/03/25 00:23:20;;;;;;;74.78;9.15;;;12.10;99.90;;;;;;5046098;28;20034;-60
2023/03/25 00:25:47;;;;;;;146.23;15.80;;;11.40;99.90;;;;;;5038242;28;20037;-60
2023/03/25 00:28:14;;;;;;;27.08;7.88;;;12.30;99.90;;;;;;5050243;28;20140;-59
2023/03/25 00:30:41;;;;;;;41.97;8.65;;;12.30;99.90;;;;;;5035865;28;20037;-60
2023/03/25 00:33:09;;;;;;;170.82;16.48;;;12.70;99.90;;;;;;5052134;28;20037;-59
2023/03/25 00:35:36;;;;;;;32.17;7.10;;;12.40;99.90;;;;;;5052506;28;20083;-60
2023/03/25 00:38:02;;;;;;;26.83;4.78;;;11.30;99.90;;;;;;5052139;28;20025;-59
2023/03/25 00:40:33;;;;;;;29.45;6.20;;;12.70;99.90;;;;;;5037392;28;20116;-59
2023/03/25 00:43:00;;;;;;;29.67;6.53;;;12.50;99.90;;;;;;5042614;28;20041;-59
2023/03/25 00:45:26;;;;;;;22.20;6.07;;;11.20;99.90;;;;;;5034633;28;20433;-60
2023/03/25 00:47:52;;;;;;;66.13;18.65;;;11.00;99.90;;;;;;5046607;28;20088;-60
2023/03/25 00:50:17;;;;;;;34.53;6.70;;;11.00;99.90;;;;;;5038396;28;20060;-60
2023/03/25 00:52:43;;;;;;;28.70;8.27;;;12.50;99.90;;;;;;5052507;28;20040;-60
2023/03/25 00:55:09;;;;;;;40.17;6.50;;;11.40;99.90;;;;;;5039699;28;20045;-60
2023/03/25 00:57:35;;;;;;;45.80;7.88;;;13.10;99.90;;;;;;5050978;28;20121;-60
2023/03/25 01:00:01;;;;;;;22.70;6.55;;;12.50;99.90;;;;;;5046492;28;20478;-60
2023/03/25 01:02:26;;;;;;;29.35;8.27;;;11.20;99.90;;;;;;5040919;28;20037;-60
2023/03/25 01:04:52;;;;;;;155.30;14.75;;;11.30;99.90;;;;;;5032097;28;20045;-60
2023/03/25 01:07:19;;;;;;;23.20;5.65;;;12.30;99.90;;;;;;5047974;28;20036;-60
2023/03/25 01:09:46;;;;;;;190.50;13.65;;;12.50;99.90;;;;;;5051490;28;20383;-60
2023/03/25 01:12:13;;;;;;;27.95;6.13;;;11.10;99.90;;;;;;5051892;28;20078;-60
2023/03/25 01:14:38;;;;;;;34.92;6.07;;;11.50;99.90;;;;;;5047412;28;20473;-60
2023/03/25 01:17:04;;;;;;;122.93;17.10;;;12.50;99.90;;;;;;5043061;28;20025;-60
2023/03/25 01:19:30;;;;;;;39.78;8.52;;;11.90;99.90;;;;;;5038955;28;20046;-60
2023/03/25 01:21:56;;;;;;;33.13;11.23;;;11.30;99.90;;;;;;5051563;28;20246;-60
2023/03/25 01:24:22;;;;;;;33.33;12.02;;;11.10;99.90;;;;;;5050565;28;20086;-60
2023/03/25 01:26:47;;;;;;;31.60;8.07;;;12.20;99.90;;;;;;5040899;28;20041;-60
2023/03/25 01:29:16;;;;;;;65.38;12.38;;;12.50;99.90;;;;;;5044292;28;20043;-60
2023/03/25 01:31:41;;;;;;;32.08;5.78;;;11.30;99.90;;;;;;5049860;28;20048;-60
2023/03/25 01:34:09;;;;;;;33.22;10.02;;;11.60;99.90;;;;;;5050448;28;20051;-60
2023/03/25 01:36:36;;;;;;;317.02;25.08;;;11.90;99.90;;;;;;5051256;28;20029;-60
2023/03/25 01:39:04;;;;;;;49.28;10.40;;;11.80;99.90;;;;;;5046672;28;20049;-60
2023/03/25 01:41:32;;;;;;;41.10;13.20;;;11.30;99.90;;;;;;5038929;28;20037;-61
2023/03/25 01:44:01;;;;;;;34.67;9.02;;;12.20;99.90;;;;;;5048084;28;20098;-60
2023/03/25 01:46:26;;;;;;;112.90;17.35;;;12.40;99.90;;;;;;5055493;28;20037;-60
2023/03/25 01:48:52;;;;;;;22.35;6.25;;;11.80;99.90;;;;;;5050806;28;20091;-60
2023/03/25 01:51:24;;;;;;;95.43;19.38;;;12.00;99.90;;;;;;5051137;28;20037;-60
2023/03/25 01:53:52;;;;;;;154.20;17.85;;;11.30;99.90;;;;;;5051190;28;20045;-60
2023/03/25 01:56:21;;;;;;;93.80;8.23;;;11.20;99.90;;;;;;5050370;28;20398;-60
2023/03/25 01:58:48;;;;;;;150.73;11.60;;;12.30;99.90;;;;;;5050554;28;20195;-60
2023/03/25 02:01:20;;;;;;;134.85;16.23;;;12.20;99.90;;;;;;5035166;28;20072;-60
2023/03/25 02:03:50;;;;;;;38.72;9.90;;;11.20;99.90;;;;;;5049873;28;20048;-60
2023/03/25 02:06:35;;;;;;;99.45;22.20;;;11.40;99.90;;;;;;5047394;28;20036;-60
2023/03/25 02:09:07;;;;;;;42.00;13.80;;;12.10;99.90;;;;;;5050355;28;20136;-60
2023/03/25 02:11:33;;;;;;;43.17;11.52;;;12.50;99.90;;;;;;5050546;28;20044;-60
2023/03/25 02:14:04;;;;;;;95.55;18.67;;;12.50;99.90;;;;;;5034951;28;20042;-60
2023/03/25 02:16:45;;;;;;;37.70;9.80;;;12.40;99.90;;;;;;5048107;28;20506;-60
2023/03/25 02:19:14;;;;;;;39.40;12.02;;;11.60;99.90;;;;;;5030685;28;20087;-60
2023/03/25 02:22:24;;;;;;;79.80;13.85;;;12.30;99.90;;;;;;5037049;28;20095;-60
2023/03/25 02:25:20;;;;;;;33.95;8.35;;;12.10;99.90;;;;;;5033999;28;20049;-60
2023/03/25 02:27:56;;;;;;;34.83;7.85;;;11.10;99.90;;;;;;5046162;28;20048;-60
2023/03/25 02:30:53;;;;;;;33.20;7.93;;;11.60;99.90;;;;;;5040018;28;20048;-60
2023/03/25 02:33:49;;;;;;;33.47;6.95;;;11.90;99.90;;;;;;5050228;28;20147;-60
2023/03/25 02:36:44;;;;;;;49.50;12.18;;;11.90;99.90;;;;;;5036710;28;20029;-60
2023/03/25 02:39:35;;;;;;;29.05;5.82;;;12.60;99.90;;;;;;5047549;28;20056;-60
2023/03/25 02:42:04;;;;;;;25.38;7.50;;;12.50;99.90;;;;;;5039310;28;20052;-60
2023/03/25 02:44:38;;;;;;;58.00;11.40;;;12.40;99.90;;;;;;5050553;28;20248;-61
2023/03/25 02:47:08;;;;;;;193.27;11.65;;;11.20;99.90;;;;;;5049113;28;20120;-60
2023/03/25 02:49:39;;;;;;;42.95;11.77;;;11.30;99.90;;;;;;5043658;28;20061;-60
2023/03/25 02:52:18;;;;;;;122.88;20.77;;;11.60;99.90;;;;;;5038903;28;20029;-60
2023/03/25 02:54:47;;;;;;;33.67;10.75;;;11.60;99.90;;;;;;5048238;28;20041;-60
2023/03/25 02:57:17;;;;;;;42.75;9.75;;;11.70;99.90;;;;;;5039573;28;20091;-60
2023/03/25 02:59:45;;;;;;;39.28;8.82;;;11.50;99.90;;;;;;5043086;28;20511;-60
2023/03/25 03:02:12;;;;;;;26.20;6.68;;;12.20;99.90;;;;;;5039136;28;20045;-60
2023/03/25 03:04:49;;;;;;;28.50;5.85;;;12.00;99.90;;;;;;5049106;28;20041;-61
2023/03/25 03:07:21;;;;;;;52.22;10.98;;;11.10;99.90;;;;;;5048746;28;20037;-60
2023/03/25 03:10:08;;;;;;;38.92;7.63;;;11.40;99.90;;;;;;5049456;28;20041;-60
2023/03/25 03:12:58;;;;;;;35.03;8.75;;;12.60;99.90;;;;;;5050484;28;20049;-60
2023/03/25 03:15:56;;;;;;;29.42;9.05;;;12.20;99.90;;;;;;5030328;28;20403;-60
2023/03/25 03:18:50;;;;;;;26.20;6.50;;;11.90;99.90;;;;;;5043981;28;20049;-60
2023/03/25 03:21:37;;;;;;;51.05;7.65;;;11.30;99.90;;;;;;5033489;28;20124;-60
2023/03/25 03:24:14;;;;;;;97.22;19.90;;;11.30;99.90;;;;;;5029130;28;20049;-60
2023/03/25 03:26:52;;;;;;;34.97;6.15;;;12.10;99.90;;;;;;5032066;28;20124;-60
2023/03/25 03:29:26;;;;;;;45.10;13.10;;;11.40;99.90;;;;;;5031564;28;20038;-60
2023/03/25 03:32:03;;;;;;;34.00;8.95;;;12.60;99.90;;;;;;5044045;28;20043;-60
2023/03/25 03:34:47;;;;;;;27.50;9.05;;;11.50;99.90;;;;;;5032883;28;20060;-60
2023/03/25 03:37:17;;;;;;;38.17;7.50;;;12.70;99.90;;;;;;5037477;28;20045;-60
2023/03/25 03:39:46;;;;;;;31.27;6.70;;;12.40;99.90;;;;;;5047404;28;20112;-60
2023/03/25 03:42:44;;;;;;;55.05;7.60;;;11.70;99.90;;;;;;5036514;28;20073;-60
2023/03/25 03:45:15;;;;;;;28.00;6.80;;;12.10;99.90;;;;;;5045312;28;20041;-60
2023/03/25 03:47:47;;;;;;;28.25;7.35;;;10.90;99.90;;;;;;5053427;28;20091;-60
2023/03/25 03:50:30;;;;;;;29.25;5.90;;;11.80;99.90;;;;;;5049069;28;20037;-60
2023/03/25 03:53:15;;;;;;;30.13;6.72;;;11.80;99.90;;;;;;5041946;28;20030;-60
2023/03/25 03:55:49;;;;;;;54.05;11.90;;;12.60;99.90;;;;;;5043244;28;20033;-60
2023/03/25 03:58:24;;;;;;;96.28;10.00;;;11.50;99.90;;;;;;5035571;28;20045;-60
2023/03/25 04:01:10;;;;;;;37.33;9.25;;;11.80;99.90;;;;;;5033915;28;20048;-60
2023/03/25 04:03:39;;;;;;;35.92;8.52;;;11.30;99.90;;;;;;5046824;28;20049;-60
2023/03/25 04:06:19;;;;;;;34.17;10.93;;;11.30;99.90;;;;;;5052674;28;20045;-60
2023/03/25 04:08:57;;;;;;;39.78;8.88;;;12.30;99.90;;;;;;5051858;28;20394;-60
2023/03/25 04:11:30;;;;;;;307.17;20.17;;;11.50;99.90;;;;;;5052795;28;20090;-60
2023/03/25 04:13:58;;;;;;;26.65;5.22;;;11.60;99.90;;;;;;5052385;28;20041;-60
2023/03/25 04:16:24;;;;;;;26.33;7.72;;;11.40;99.90;;;;;;5052849;28;20033;-60
2023/03/25 04:18:52;;;;;;;35.42;6.72;;;12.90;99.90;;;;;;5052895;28;20178;-60
2023/03/25 04:21:18;;;;;;;37.50;9.90;;;12.20;99.90;;;;;;5035356;28;20057;-60
2023/03/25 04:23:45;;;;;;;19.88;6.22;;;11.10;99.90;;;;;;5049885;28;20051;-60
2023/03/25 04:26:12;;;;;;;39.25;8.10;;;12.00;99.90;;;;;;5052141;28;20048;-60
2023/03/25 04:28:40;;;;;;;47.33;8.68;;;10.80;99.90;;;;;;5052150;28;20041;-60
2023/03/25 04:31:17;;;;;;;34.47;8.07;;;11.90;99.90;;;;;;5036985;28;20064;-60
2023/03/25 04:33:47;;;;;;;43.78;9.40;;;11.20;99.90;;;;;;5048862;28;20103;-60
2023/03/25 04:36:14;;;;;;;237.95;12.18;;;12.20;99.90;;;;;;5052290;28;20041;-60
2023/03/25 04:38:40;;;;;;;38.75;10.77;;;12.20;99.90;;;;;;5051441;28;20124;-60
2023/03/25 04:41:09;;;;;;;32.20;7.70;;;11.50;99.90;;;;;;5037139;28;20035;-60
2023/03/25 04:43:35;;;;;;;27.15;7.85;;;11.70;99.90;;;;;;5047133;28;20053;-61
2023/03/25 04:46:01;;;;;;;81.20;12.55;;;10.90;99.90;;;;;;5050069;28;20383;-60
2023/03/25 04:48:30;;;;;;;182.18;9.45;;;11.80;99.90;;;;;;5052491;28;20095;-61
2023/03/25 04:50:57;;;;;;;29.23;8.77;;;11.20;99.90;;;;;;5051817;28;20048;-61
2023/03/25 04:53:26;;;;;;;42.78;11.27;;;11.20;99.90;;;;;;5050460;28;20041;-61
2023/03/25 04:55:52;;;;;;;36.05;6.05;;;10.80;99.90;;;;;;5041157;28;20076;-60
2023/03/25 04:58:18;;;;;;;48.80;11.07;;;10.90;99.90;;;;;;5043670;28;20073;-60
2023/03/25 05:00:49;;;;;;;69.95;19.45;;;11.70;99.90;;;;;;5040151;28;20041;-60
2023/03/25 05:03:15;;;;;;;32.38;9.13;;;11.20;99.90;;;;;;5042793;28;20106;-60
2023/03/25 05:05:41;;;;;;;34.08;8.13;;;11.90;99.90;;;;;;5042815;28;20489;-60
2023/03/25 05:08:07;;;;;;;40.80;7.88;;;12.20;99.90;;;;;;5041390;28;20394;-61
2023/03/25 05:10:35;;;;;;;27.13;6.53;;;11.50;99.90;;;;;;5051512;28;20409;-60
2023/03/25 05:13:03;;;;;;;28.00;6.22;;;12.30;99.90;;;;;;5042662;28;20112;-60
2023/03/25 05:15:31;;;;;;;23.88;5.65;;;12.10;99.90;;;;;;5049620;28;20048;-60
2023/03/25 05:17:57;;;;;;;38.22;10.05;;;11.70;99.90;;;;;;5049260;28;20041;-60
2023/03/25 05:20:23;;;;;;;54.53;14.95;;;12.00;99.90;;;;;;5045416;28;20034;-61
2023/03/25 05:22:52;;;;;;;28.52;7.60;;;12.10;99.90;;;;;;5037558;28;20061;-60
2023/03/25 05:25:20;;;;;;;31.83;8.80;;;11.30;99.90;;;;;;5048640;28;20050;-60
2023/03/25 05:27:47;;;;;;;49.60;11.27;;;10.90;99.90;;;;;;5037262;28;20075;-61
2023/03/25 05:30:14;;;;;;;21.80;5.22;;;10.80;99.90;;;;;;5051020;28;20045;-60
2023/03/25 05:32:40;;;;;;;63.83;14.15;;;11.70;99.90;;;;;;5051470;28;20037;-60
2023/03/25 05:35:06;;;;;;;38.60;5.88;;;11.00;99.90;;;;;;5050703;28;20045;-60
2023/03/25 05:37:32;;;;;;;40.65;11.32;;;11.10;99.90;;;;;;5047789;28;20047;-61
2023/03/25 05:39:58;;;;;;;23.92;5.32;;;11.70;99.90;;;;;;5039078;28;20491;-60
2023/03/25 05:42:24;;;;;;;184.20;13.57;;;11.10;99.90;;;;;;5051416;28;20033;-61
2023/03/25 05:44:50;;;;;;;37.30;6.75;;;10.80;99.90;;;;;;5050177;28;20554;-60
2023/03/25 05:47:22;;;;;;;33.60;6.85;;;11.60;99.90;;;;;;5049623;28;20482;-60
2023/03/25 05:49:48;;;;;;;34.30;9.30;;;11.70;99.90;;;;;;5051854;28;20044;-60
2023/03/25 05:52:15;;;;;;;37.35;6.30;;;10.70;99.90;;;;;;5050703;28;20127;-60
2023/03/25 05:54:49;;;;;;;30.40;7.45;;;12.10;99.90;;;;;;5051088;28;20048;-60
2023/03/25 05:57:15;;;;;;;53.03;11.93;;;12.00;99.90;;;;;;5049007;28;20565;-60
2023/03/25 05:59:40;;;;;;;27.58;6.75;;;11.60;99.90;;;;;;5051246;28;20049;-60
2023/03/25 06:02:11;;;;;;;26.13;6.03;;;12.60;99.90;;;;;;5034636;28;20454;-60
2023/03/25 06:04:42;;;;;;;32.70;7.57;;;11.90;99.90;;;;;;5033296;28;20055;-60
2023/03/25 06:07:13;;;;;;;31.95;7.45;;;11.90;99.90;;;;;;5030840;28;20077;-60
2023/03/25 06:09:44;;;;;;;18.30;4.60;;;12.00;99.90;;;;;;5049434;28;20538;-60
2023/03/25 06:12:12;;;;;;;287.02;15.70;;;11.70;99.90;;;;;;5050853;28;20041;-60
2023/03/25 06:14:41;;;;;;;15.82;5.22;;;10.80;99.90;;;;;;5049557;28;20604;-60
2023/03/25 06:17:09;;;;;;;20.55;6.60;;;12.00;99.90;;;;;;5050756;28;20029;-60
2023/03/25 06:19:37;;;;;;;23.42;5.47;;;11.20;99.90;;;;;;5051080;28;20074;-60
2023/03/25 06:22:05;;;;;;;29.25;6.28;;;11.80;99.90;;;;;;5034784;28;20061;-60
2023/03/25 06:24:30;;;;;;;29.98;8.27;;;11.60;99.90;;;;;;5049184;28;20044;-60
2023/03/25 06:26:56;;;;;;;25.60;5.85;;;10.80;99.90;;;;;;5046587;28;20041;-60
2023/03/25 06:29:22;;;;;;;28.73;6.15;;;11.40;99.90;;;;;;5050613;28;20495;-60
2023/03/25 06:31:47;;;;;;;25.95;5.78;;;11.50;99.90;;;;;;5050266;28;20415;-60
2023/03/25 06:34:13;;;;;;;36.63;12.18;;;10.50;99.90;;;;;;5048478;28;20406;-60
2023/03/25 06:36:38;;;;;;;115.47;7.03;;;11.00;99.90;;;;;;5050672;28;20444;-60
2023/03/25 06:39:04;;;;;;;24.80;5.75;;;11.00;99.90;;;;;;5049861;28;20044;-60
2023/03/25 06:41:30;;;;;;;33.53;8.23;;;11.80;99.90;;;;;;5050897;28;20048;-60
2023/03/25 06:43:56;;;;;;;31.63;7.45;;;10.70;99.90;;;;;;5045133;28;20420;-60
2023/03/25 06:46:21;;;;;;;29.42;6.15;;;11.20;99.90;;;;;;5030697;28;20040;-60
2023/03/25 06:48:47;;;;;;;31.05;5.80;;;11.00;99.90;;;;;;5032632;28;20396;-60
2023/03/25 06:51:13;;;;;;;22.38;5.63;;;10.90;99.90;;;;;;5029257;28;20045;-60
2023/03/25 06:53:39;;;;;;;26.20;5.38;;;11.70;99.90;;;;;;5037911;28;20049;-60
2023/03/25 06:56:05;;;;;;;23.90;5.13;;;11.10;99.90;;;;;;5034190;28;20072;-60
2023/03/25 06:58:33;;;;;;;37.17;8.63;;;11.90;99.90;;;;;;5046707;28;20462;-61
2023/03/25 07:01:02;;;;;;;28.02;5.07;;;11.10;99.90;;;;;;5044441;28;20494;-60
2023/03/25 07:03:29;;;;;;;21.10;5.05;;;11.00;99.90;;;;;;5047355;28;20171;-60
2023/03/25 07:05:54;;;;;;;23.20;5.63;;;11.80;99.90;;;;;;5044837;28;20071;-60
2023/03/25 07:08:20;;;;;;;37.00;6.65;;;11.90;99.90;;;;;;5047264;28;20049;-60
2023/03/25 07:10:45;;;;;;;27.75;8.98;;;10.80;99.90;;;;;;5049082;28;20043;-60
2023/03/25 07:13:11;;;;;;;32.95;8.88;;;10.80;99.90;;;;;;5042866;28;20562;-60
2023/03/25 07:15:36;;;;;;;24.08;4.70;;;10.60;99.90;;;;;;5049539;28;20041;-61
2023/03/25 07:18:02;;;;;;;32.20;6.32;;;11.90;99.90;;;;;;5048191;28;20077;-60
2023/03/25 07:20:28;;;;;;;29.33;6.75;;;12.00;99.90;;;;;;5038775;28;20483;-60
2023/03/25 07:22:54;;;;;;;22.90;5.55;;;11.50;99.90;;;;;;5040295;28;20463;-60
2023/03/25 07:25:20;;;;;;;36.53;6.40;;;10.30;99.90;;;;;;5052480;28;20047;-60
2023/03/25 07:27:46;;;;;;;330.38;15.90;;;11.80;99.90;;;;;;5048306;28;20107;-60
2023/03/25 07:30:12;;;;;;;96.32;14.45;;;11.90;99.90;;;;;;5046835;28;20041;-60
2023/03/25 07:32:37;;;;;;;39.92;10.50;;;11.10;99.90;;;;;;5051664;28;20052;-60
2023/03/25 07:35:04;;;;;;;28.90;6.13;;;10.90;99.90;;;;;;5049223;28;20096;-60
2023/03/25 07:37:30;;;;;;;38.72;6.88;;;10.70;99.90;;;;;;5051039;28;20567;-60
2023/03/25 07:39:55;;;;;;;74.45;7.95;;;12.00;99.90;;;;;;5059178;28;20044;-60
2023/03/25 07:42:21;;;;;;;642.60;47.20;;;11.40;99.90;;;;;;5036388;28;20513;-60
2023/03/25 07:44:46;;;;;;;27.38;7.68;;;12.30;99.90;;;;;;5038847;28;20042;-60
2023/03/25 07:47:12;;;;;;;153.85;8.63;;;12.20;99.90;;;;;;5044718;28;20445;-60
2023/03/25 07:49:41;;;;;;;31.60;9.60;;;11.60;99.90;;;;;;5038739;28;20121;-60
2023/03/25 07:52:07;;;;;;;33.42;5.45;;;11.00;99.90;;;;;;5050093;28;20455;-60
2023/03/25 07:54:32;;;;;;;40.08;9.13;;;11.00;99.90;;;;;;5041213;28;20559;-60
2023/03/25 07:56:59;;;;;;;38.85;6.05;;;11.30;99.90;;;;;;5044639;28;20414;-60
2023/03/25 07:59:24;;;;;;;23.63;5.95;;;12.70;99.90;;;;;;5046624;28;20068;-61
2023/03/25 08:01:50;;;;;;;28.90;5.85;;;11.20;99.90;;;;;;5032869;28;20130;-60
2023/03/25 08:04:16;;;;;;;33.45;8.18;;;11.80;99.90;;;;;;5051089;28;20047;-60
2023/03/25 08:06:41;;;;;;;21.48;6.50;;;11.50;99.90;;;;;;5037298;28;20479;-60
2023/03/25 08:09:07;;;;;;;24.02;5.40;;;12.40;99.90;;;;;;5047722;28;20475;-60
2023/03/25 08:11:32;;;;;;;25.90;6.45;;;11.80;99.90;;;;;;5039960;28;20120;-60
2023/03/25 08:13:58;;;;;;;22.25;5.80;;;12.30;99.90;;;;;;5036189;28;20059;-60
2023/03/25 08:16:24;;;;;;;32.15;5.43;;;11.30;99.90;;;;;;5035968;28;20032;-60
2023/03/25 08:18:51;;;;;;;28.50;6.53;;;12.10;99.90;;;;;;5037803;28;20059;-60
2023/03/25 08:21:23;;;;;;;33.72;6.30;;;11.90;99.90;;;;;;5035432;28;20056;-60
2023/03/25 08:23:57;;;;;;;22.33;4.40;;;11.00;99.90;;;;;;5037112;28;20064;-60
2023/03/25 08:26:25;;;;;;;33.97;9.05;;;12.00;99.90;;;;;;5037865;28;20036;-60
2023/03/25 08:28:53;;;;;;;28.48;5.38;;;11.20;99.90;;;;;;5042815;28;20550;-61
2023/03/25 08:31:20;;;;;;;18.67;5.22;;;12.00;99.90;;;;;;5051982;28;20044;-60
2023/03/25 08:33:46;;;;;;;21.50;7.28;;;12.10;99.90;;;;;;5045865;28;20037;-60
2023/03/25 08:36:13;;;;;;;25.35;8.38;;;11.90;99.90;;;;;;5031255;28;20749;-60
2023/03/25 08:38:40;;;;;;;21.20;4.57;;;12.10;99.90;;;;;;5034368;28;20029;-60
2023/03/25 08:41:06;;;;;;;23.65;5.22;;;12.10;99.90;;;;;;5033977;28;20683;-60
2023/03/25 08:43:32;;;;;;;33.55;9.43;;;12.20;99.90;;;;;;5037793;28;20037;-61
2023/03/25 08:45:57;;;;;;;20.45;5.22;;;11.40;99.90;;;;;;5036584;28;20033;-61
2023/03/25 08:48:23;;;;;;;26.63;7.18;;;12.10;99.90;;;;;;5040334;28;20505;-60
2023/03/25 08:50:49;;;;;;;20.38;5.00;;;11.50;99.90;;;;;;5043687;28;20567;-61
2023/03/25 08:53:14;;;;;;;20.25;4.95;;;11.40;99.90;;;;;;5045685;28;20040;-61
2023/03/25 08:55:40;;;;;;;24.75;6.55;;;11.50;99.90;;;;;;5047232;28;20029;-61
2023/03/25 08:58:07;;;;;;;40.78;8.52;;;11.50;99.90;;;;;;5037047;28;20029;-61
2023/03/25 09:00:34;;;;;;;21.80;5.55;;;11.80;99.90;;;;;;5039534;28;20077;-60
2023/03/25 09:03:01;;;;;;;88.68;16.30;;;11.50;99.90;;;;;;5039874;28;20045;-61
2023/03/25 09:05:27;;;;;;;28.25;5.60;;;12.00;99.90;;;;;;5046522;28;20072;-61
2023/03/25 09:07:52;;;;;;;20.15;5.32;;;12.10;99.90;;;;;;5038927;28;20518;-62
2023/03/25 09:10:18;;;;;;;19.15;5.60;;;11.60;99.90;;;;;;5052414;28;20036;-61
2023/03/25 09:12:43;;;;;;;27.45;5.80;;;12.40;99.90;;;;;;5043117;28;20048;-61
2023/03/25 09:15:10;;;;;;;26.95;5.00;;;12.00;99.90;;;;;;5045629;28;20507;-61
2023/03/25 09:17:37;;;;;;;27.42;5.68;;;12.40;99.90;;;;;;5042724;28;20037;-61
2023/03/25 09:20:04;;;;;;;27.95;6.53;;;12.70;99.90;;;;;;5051672;28;20132;-61
2023/03/25 09:22:30;;;;;;;26.83;6.75;;;12.60;99.90;;;;;;5038061;28;20059;-61
2023/03/25 09:24:56;;;;;;;27.25;5.80;;;12.90;99.90;;;;;;5046302;28;20489;-61
2023/03/25 09:27:21;;;;;;;29.35;6.55;;;12.50;99.90;;;;;;5051688;28;20102;-61
2023/03/25 09:29:47;;;;;;;27.50;6.18;;;12.40;99.90;;;;;;5051598;28;20041;-60
2023/03/25 09:32:13;;;;;;;26.98;6.15;;;13.10;99.90;;;;;;5033739;28;20072;-61
2023/03/25 09:34:39;;;;;;;29.27;5.85;;;12.50;99.90;;;;;;5049630;28;20064;-60
2023/03/25 09:37:05;;;;;;;22.38;5.50;;;13.10;99.90;;;;;;5037349;28;20032;-60
2023/03/25 09:39:31;;;;;;;34.00;8.85;;;13.10;99.90;;;;;;5036986;28;20033;-60
2023/03/25 09:42:12;;;;;;;28.15;5.90;;;12.80;99.90;;;;;;5050697;28;20037;-61
2023/03/25 09:44:55;;;;;;;20.83;4.75;;;12.70;99.90;;;;;;5040635;28;20068;-60
2023/03/25 09:47:22;;;;;;;34.58;7.05;;;12.90;99.90;;;;;;5035145;28;20048;-62
2023/03/25 09:49:57;;;;;;;18.83;5.32;;;13.30;99.90;;;;;;5050347;28;20045;-61
2023/03/25 09:52:28;;;;;;;28.92;5.97;;;13.00;99.90;;;;;;5049653;28;20041;-62
2023/03/25 09:55:03;;;;;;;24.58;6.55;;;14.20;99.90;;;;;;5039590;28;20099;-61
2023/03/25 09:57:32;;;;;;;28.00;6.07;;;13.20;99.90;;;;;;5034113;28;20095;-61
2023/03/25 10:00:02;;;;;;;33.88;6.80;;;13.40;99.90;;;;;;5033933;28;20038;-61
2023/03/25 10:02:47;;;;;;;32.60;6.07;;;13.30;99.90;;;;;;5031250;28;20034;-61
2023/03/25 10:05:49;;;;;;;45.50;9.00;;;13.40;99.90;;;;;;5048340;28;20068;-61
2023/03/25 10:08:27;;;;;;;105.20;13.07;;;13.30;99.90;;;;;;5040386;28;20124;-61
2023/03/25 10:11:24;;;;;;;25.42;5.63;;;13.60;99.90;;;;;;5046315;28;20072;-62
2023/03/25 10:14:03;;;;;;;27.20;7.40;;;13.70;99.90;;;;;;5032141;28;20495;-61
2023/03/25 10:16:44;;;;;;;24.88;5.90;;;13.50;99.90;;;;;;5054103;28;20037;-62
2023/03/25 10:19:33;;;;;;;28.85;6.60;;;13.60;99.90;;;;;;5034693;28;20123;-61
2023/03/25 10:22:15;;;;;;;31.20;5.43;;;14.00;99.90;;;;;;5031349;28;20073;-61
2023/03/25 10:25:03;;;;;;;30.20;5.90;;;14.10;99.90;;;;;;5045637;28;20049;-62
2023/03/25 10:27:43;;;;;;;89.15;11.32;;;13.90;99.90;;;;;;5042000;28;20585;-61
2023/03/25 10:30:11;;;;;;;27.88;5.03;;;13.90;99.90;;;;;;5042075;28;20750;-61
2023/03/25 10:32:47;;;;;;;24.30;4.93;;;13.80;99.90;;;;;;5040919;28;20368;-61
2023/03/25 10:35:32;;;;;;;32.25;6.22;;;13.50;99.90;;;;;;5036707;28;20068;-61
2023/03/25 10:38:12;;;;;;;19.53;5.30;;;13.30;99.90;;;;;;5037178;28;20044;-61
2023/03/25 10:40:43;;;;;;;30.50;7.07;;;13.20;99.90;;;;;;5032615;28;20083;-61
2023/03/25 10:43:31;;;;;;;37.83;8.95;;;13.30;99.90;;;;;;5045401;28;20469;-61
2023/03/25 10:46:16;;;;;;;23.45;6.55;;;13.10;99.90;;;;;;5035451;28;20030;-61
2023/03/25 10:48:41;;;;;;;24.85;5.25;;;13.50;99.90;;;;;;5036360;28;20032;-61
2023/03/25 10:51:14;;;;;;;31.65;6.75;;;13.10;99.90;;;;;;5043874;28;20487;-61
2023/03/25 10:53:40;;;;;;;27.95;6.05;;;13.20;99.90;;;;;;5037798;28;20041;-61
2023/03/25 10:56:14;;;;;;;19.52;4.95;;;13.90;99.90;;;;;;5039343;28;20037;-61
2023/03/25 10:58:42;;;;;;;29.73;6.13;;;14.00;99.90;;;;;;5034608;28;20037;-62
2023/03/25 11:01:14;;;;;;;16.45;4.30;;;13.80;99.90;;;;;;5042759;28;20048;-61
2023/03/25 11:03:41;;;;;;;26.42;5.30;;;13.60;99.90;;;;;;5040563;28;20536;-61
2023/03/25 11:06:25;;;;;;;29.05;5.63;;;13.80;99.90;;;;;;5045630;28;20079;-61
2023/03/25 11:09:18;;;;;;;23.77;6.50;;;13.90;99.90;;;;;;5043647;28;20147;-61
2023/03/25 11:11:45;;;;;;;20.85;5.10;;;13.90;99.90;;;;;;5040670;28;20057;-61
2023/03/25 11:14:11;;;;;;;41.80;6.15;;;13.80;99.90;;;;;;5048020;28;20056;-61
2023/03/25 11:16:45;;;;;;;30.70;5.55;;;14.10;99.90;;;;;;5048051;28;20037;-61
2023/03/25 11:19:25;;;;;;;28.15;8.63;;;13.80;99.90;;;;;;5044114;28;20037;-62
2023/03/25 11:22:32;;;;;;;26.15;4.95;;;13.50;99.90;;;;;;5032863;28;20061;-61
2023/03/25 11:25:15;;;;;;;21.30;5.43;;;13.50;99.90;;;;;;5044308;28;20128;-61
2023/03/25 11:27:56;;;;;;;22.75;5.18;;;13.30;99.90;;;;;;5047401;28;20064;-61
2023/03/25 11:30:24;;;;;;;22.73;4.93;;;13.50;99.90;;;;;;5042415;28;20612;-61
2023/03/25 11:33:13;;;;;;;28.10;6.00;;;13.10;99.90;;;;;;5040585;28;20041;-61
2023/03/25 11:35:42;;;;;;;24.77;5.75;;;13.10;99.90;;;;;;5042617;28;20558;-60
2023/03/25 11:38:20;;;;;;;20.85;4.53;;;12.90;99.90;;;;;;5022385;28;20525;-61
2023/03/25 11:40:55;;;;;;;25.55;6.03;;;12.80;99.90;;;;;;5040829;28;20041;-60
2023/03/25 11:43:23;;;;;;;19.13;4.85;;;12.90;99.90;;;;;;5051308;28;20064;-61
2023/03/25 11:45:49;;;;;;;26.08;5.25;;;13.10;99.90;;;;;;5045893;28;20506;-60
2023/03/25 11:48:19;;;;;;;28.42;5.88;;;12.90;99.90;;;;;;5041365;28;20041;-61
2023/03/25 11:50:56;;;;;;;23.77;5.03;;;13.20;99.90;;;;;;5042513;28;20072;-61
2023/03/25 11:53:25;;;;;;;30.73;6.28;;;12.80;99.90;;;;;;5047273;28;20080;-61
2023/03/25 11:55:54;;;;;;;30.70;6.18;;;12.80;99.90;;;;;;5042856;28;20454;-60
2023/03/25 11:58:26;;;;;;;21.60;5.65;;;12.90;99.90;;;;;;5043671;28;20037;-61
2023/03/25 12:01:26;;;;;;;36.42;6.53;;;12.90;99.90;;;;;;5045555;28;20402;-61
2023/03/25 12:04:12;;;;;;;35.47;5.53;;;12.80;99.90;;;;;;5041765;28;20060;-61
2023/03/25 12:07:05;;;;;;;21.70;5.45;;;12.80;99.90;;;;;;5036793;28;20041;-61
2023/03/25 12:09:31;;;;;;;31.40;5.78;;;13.10;99.90;;;;;;5032985;28;20056;-61
2023/03/25 12:12:20;;;;;;;41.22;6.05;;;13.10;99.90;;;;;;5041833;28;20072;-61
2023/03/25 12:15:10;;;;;;;19.77;4.47;;;12.90;99.90;;;;;;5046043;28;20119;-61
2023/03/25 12:17:54;;;;;;;21.35;5.38;;;12.60;99.90;;;;;;5034152;28;20044;-61
2023/03/25 12:20:38;;;;;;;30.92;6.75;;;12.50;99.90;;;;;;5035892;28;20406;-61
2023/03/25 12:23:41;;;;;;;33.65;6.60;;;12.70;99.90;;;;;;5034109;28;20142;-59
2023/03/25 12:26:20;;;;;;;23.77;5.20;;;12.10;99.90;;;;;;5035149;28;20072;-59
2023/03/25 12:28:54;;;;;;;19.45;4.55;;;11.80;99.90;;;;;;5036030;28;20044;-60
2023/03/25 12:31:40;;;;;;;24.95;4.70;;;11.40;99.90;;;;;;5035613;28;20081;-60
2023/03/25 12:34:25;;;;;;;30.33;5.28;;;12.00;99.90;;;;;;5039332;28;20045;-60
2023/03/25 12:37:04;;;;;;;28.77;5.03;;;11.00;99.90;;;;;;5038465;28;20683;-60
2023/03/25 12:39:51;;;;;;;28.52;6.75;;;11.10;99.90;;;;;;5035161;28;20053;-60
2023/03/25 12:42:28;;;;;;;23.88;6.97;;;12.20;99.90;;;;;;5040050;28;20037;-60
2023/03/25 12:45:01;;;;;;;27.60;5.40;;;11.20;99.90;;;;;;5035021;28;20041;-59
2023/03/25 12:47:48;;;;;;;37.35;11.15;;;11.50;99.90;;;;;;5048076;28;20045;-60
2023/03/25 12:50:26;;;;;;;31.95;6.93;;;11.30;99.90;;;;;;5042081;28;20041;-60
2023/03/25 12:53:03;;;;;;;34.15;6.93;;;12.20;99.90;;;;;;5034784;28;20730;-60
2023/03/25 12:55:50;;;;;;;27.90;6.28;;;12.10;99.90;;;;;;5034991;28;20048;-60